Time;durP1;ratioP1;P1;durP2;ratioP2;P2;SDS_P1;SDS_P2;PMS_P1;PMS_P2;Temp;Humidity;BMP_temperature;BMP_pressure;BME280_temperature;BME280_humidity;BME280_pressure;Samples;Min_cycle;Max_cycle;Signal;HPM_P1;HPM_P2
2023/07/11 08:44:31;;;;;;;;;;;;;;;32.36;29.28;99698.44;1086421;54;19931;-84
2023/07/11 08:45:34;;;;;;;;;;;;;;;32.35;29.32;99704.28;1087944;39;20807;-83
2023/07/11 08:46:41;;;;;;;;;;;;;;;32.47;29.41;99699.13;1086751;54;19958;-83
2023/07/11 08:47:45;;;;;;;;;;;;;;;32.62;29.54;99700.00;1086605;47;19939;-83
2023/07/11 08:48:51;;;;;;;;;;;;;;;32.53;29.25;99691.56;1087052;39;20790;-84
2023/07/11 08:49:54;;;;;;;;;;;;;;;32.71;28.86;99697.38;1088818;39;20303;-84
2023/07/11 08:51:02;;;;;;;;;;;;;;;32.73;28.94;99698.72;1087083;54;19943;-83
2023/07/11 08:52:04;;;;;;;;;;;;;;;32.91;29.15;99686.00;1086474;47;19939;-83
2023/07/11 08:53:10;;;;;;;;;;;;;;;32.90;28.96;99689.06;1086485;54;19942;-83
2023/07/11 08:54:15;;;;;;;;;;;;;;;32.85;29.04;99689.16;1086529;54;19966;-84
2023/07/11 08:55:20;;;;;;;;;;;;;;;32.91;28.78;99686.00;1086411;47;19939;-83
2023/07/11 08:56:25;;;;;;;;;;;;;;;33.11;28.71;99686.78;1086486;54;19966;-84
2023/07/11 08:57:29;;;;;;;;;;;;;;;33.28;28.29;99680.63;1088166;39;20639;-82
2023/07/11 08:58:32;;;;;;;;;;;;;;;33.42;28.52;99684.25;1087490;39;21116;-85
2023/07/11 08:59:44;;;;;;;;;;;;;;;33.50;28.03;99687.44;1086564;47;19950;-82
2023/07/11 09:00:46;;;;;;;;;;;;;;;33.41;27.93;99677.06;1086330;47;19939;-83
2023/07/11 09:01:52;;;;;;;;;;;;;;;33.57;27.96;99679.53;1086458;47;19938;-83
2023/07/11 09:02:55;;;;;;;;;;;;;;;33.54;28.19;99666.28;1086954;46;19963;-84
2023/07/11 09:03:59;;;;;;;;;;;;;;;33.69;28.25;99668.75;1086902;54;19967;-83
2023/07/11 09:05:01;;;;;;;;;;;;;;;33.73;28.61;99661.44;1086980;54;19950;-83
2023/07/11 09:06:06;;;;;;;;;;;;;;;33.93;28.17;99667.72;1086851;47;19950;-84
2023/07/11 09:07:14;;;;;;;;;;;;;;;33.99;28.17;99662.88;1086961;47;21037;-85
2023/07/11 09:08:18;;;;;;;;;;;;;;;34.15;27.72;99668.91;1087031;54;19949;-85
2023/07/11 09:09:19;;;;;;;;;;;;;;;34.19;27.61;99661.63;1086936;47;19938;-84
2023/07/11 09:10:31;;;;;;;;;;;;;;;33.87;27.72;99655.91;1086902;47;19965;-83
2023/07/11 09:11:37;;;;;;;;;;;;;;;33.87;27.68;99652.34;1086751;54;19942;-84
2023/07/11 09:12:44;;;;;;;;;;;;;;;33.99;27.95;99652.63;1086735;54;19946;-84
2023/07/11 09:13:51;;;;;;;;;;;;;;;34.10;27.85;99649.63;1086836;47;19938;-83
2023/07/11 09:15:01;;;;;;;;;;;;;;;34.29;27.67;99650.25;1087031;54;19949;-84
2023/07/11 09:16:06;;;;;;;;;;;;;;;34.26;27.56;99641.75;1086971;54;20006;-83
2023/07/11 09:17:14;;;;;;;;;;;;;;;34.10;27.54;99652.41;1086913;47;20006;-83
2023/07/11 09:18:21;;;;;;;;;;;;;;;33.93;27.72;99651.09;1089328;39;20230;-84
2023/07/11 09:19:30;;;;;;;;;;;;;;;33.57;28.25;99643.53;1087470;47;19994;-84
2023/07/11 09:20:38;;;;;;;;;;;;;;;33.64;28.44;99635.59;1087497;47;19938;-82
2023/07/11 09:21:48;;;;;;;;;;;;;;;33.27;28.71;99649.34;1087377;54;19943;-84
2023/07/11 09:22:54;;;;;;;;;;;;;;;33.25;28.82;99645.25;1087462;47;20034;-84
2023/07/11 09:24:00;;;;;;;;;;;;;;;33.43;28.61;99644.38;1086893;47;19965;-83
2023/07/11 09:25:07;;;;;;;;;;;;;;;33.72;28.30;99637.66;1086735;47;19938;-84
2023/07/11 09:26:14;;;;;;;;;;;;;;;34.10;27.86;99641.31;1090010;31;20775;-83
2023/07/11 09:27:20;;;;;;;;;;;;;;;34.09;27.98;99632.16;1086841;46;19946;-83
2023/07/11 09:28:26;;;;;;;;;;;;;;;34.06;28.23;99641.09;1088833;39;20928;-83
2023/07/11 09:29:27;;;;;;;;;;;;;;;33.97;27.95;99638.25;1086883;46;19938;-84
2023/07/11 09:30:40;;;;;;;;;;;;;;;33.96;28.18;99644.13;1086749;47;20014;-83
2023/07/11 09:31:43;;;;;;;;;;;;;;;34.13;28.33;99629.56;1087713;39;20769;-83
2023/07/11 09:32:46;;;;;;;;;;;;;;;34.44;27.97;99629.69;1086753;47;20006;-82
2023/07/11 09:33:50;;;;;;;;;;;;;;;34.42;28.23;99622.81;1086829;47;19939;-84
2023/07/11 09:34:53;;;;;;;;;;;;;;;34.11;28.41;99634.59;1086919;46;19945;-83
2023/07/11 09:35:55;;;;;;;;;;;;;;;34.38;28.21;99628.16;1086499;54;19942;-84
2023/07/11 09:36:59;;;;;;;;;;;;;;;34.59;28.11;99625.72;1086352;47;19939;-84
2023/07/11 09:38:05;;;;;;;;;;;;;;;34.73;27.91;99627.59;1086575;54;19967;-84
2023/07/11 09:39:16;;;;;;;;;;;;;;;34.88;27.51;99631.94;1086830;54;19967;-83
2023/07/11 09:40:20;;;;;;;;;;;;;;;34.88;27.66;99624.41;1086852;47;19938;-83
2023/07/11 09:41:26;;;;;;;;;;;;;;;34.54;28.04;99623.06;1086792;46;19946;-84
2023/07/11 09:42:35;;;;;;;;;;;;;;;34.86;27.83;99612.00;1086926;47;19938;-84
2023/07/11 09:43:38;;;;;;;;;;;;;;;34.52;28.28;99611.47;1087000;47;19939;-85
2023/07/11 09:44:39;;;;;;;;;;;;;;;34.75;28.22;99615.03;1086551;47;19945;-84
2023/07/11 09:45:46;;;;;;;;;;;;;;;34.89;28.01;99614.94;1086337;54;19973;-82
2023/07/11 09:46:47;;;;;;;;;;;;;;;34.95;27.94;99610.91;1086902;54;19942;-83
2023/07/11 09:47:53;;;;;;;;;;;;;;;35.17;27.69;99609.22;1086758;47;19938;-84
2023/07/11 09:48:55;;;;;;;;;;;;;;;35.40;27.23;99603.59;1086904;47;19938;-85
2023/07/11 09:50:00;;;;;;;;;;;;;;;35.43;27.72;99605.72;1086946;46;19950;-83
2023/07/11 09:51:07;;;;;;;;;;;;;;;35.57;27.01;99592.53;1087243;39;20680;-83
2023/07/11 09:52:12;;;;;;;;;;;;;;;35.74;27.08;99596.47;1086951;46;20048;-84
2023/07/11 09:53:15;;;;;;;;;;;;;;;35.57;27.17;99605.59;1086927;47;19939;-85
2023/07/11 09:54:19;;;;;;;;;;;;;;;35.60;27.12;99602.19;1086891;46;19946;-83
2023/07/11 09:55:24;;;;;;;;;;;;;;;35.45;27.79;99597.88;1086956;54;19943;-83
2023/07/11 09:56:27;;;;;;;;;;;;;;;35.47;27.46;99601.16;1086785;54;19942;-85
2023/07/11 09:57:28;;;;;;;;;;;;;;;35.39;27.74;99599.16;1086839;54;19968;-81
2023/07/11 09:58:34;;;;;;;;;;;;;;;35.45;27.50;99600.66;1086937;54;20726;-82
2023/07/11 09:59:35;;;;;;;;;;;;;;;35.32;27.79;99601.59;1086863;47;20070;-82
2023/07/11 10:00:45;;;;;;;;;;;;;;;35.18;27.56;99599.75;1086761;47;20046;-83
2023/07/11 10:01:50;;;;;;;;;;;;;;;35.35;27.83;99600.94;1086889;54;19943;-82
2023/07/11 10:02:54;;;;;;;;;;;;;;;35.53;27.18;99597.09;1086814;47;19939;-84
2023/07/11 10:04:00;;;;;;;;;;;;;;;35.41;27.50;99594.94;1086887;54;19943;-83
2023/07/11 10:05:03;;;;;;;;;;;;;;;35.30;27.32;99599.97;1086922;54;19999;-84
2023/07/11 10:06:04;;;;;;;;;;;;;;;35.38;27.39;99601.09;1086689;47;20003;-84
2023/07/11 10:07:13;;;;;;;;;;;;;;;35.27;27.26;99595.03;1086763;46;20029;-85
2023/07/11 10:08:16;;;;;;;;;;;;;;;35.27;27.47;99588.69;1086812;46;19964;-82
2023/07/11 10:09:23;;;;;;;;;;;;;;;35.11;27.75;99585.53;1086763;47;19965;-82
2023/07/11 10:10:24;;;;;;;;;;;;;;;35.44;27.27;99599.03;1086773;47;20369;-82
2023/07/11 10:11:27;;;;;;;;;;;;;;;35.54;26.93;99589.59;1086851;46;19946;-84
2023/07/11 10:12:28;;;;;;;;;;;;;;;35.69;27.23;99586.34;1086842;47;19974;-83
2023/07/11 10:13:32;;;;;;;;;;;;;;;35.83;26.73;99583.41;1086741;47;19939;-83
2023/07/11 10:14:34;;;;;;;;;;;;;;;36.07;26.58;99584.91;1086885;46;20014;-82
2023/07/11 10:15:37;;;;;;;;;;;;;;;35.99;26.43;99592.09;1086587;39;20990;-83
2023/07/11 10:16:38;;;;;;;;;;;;;;;36.07;26.50;99587.69;1086390;54;19939;-83
2023/07/11 10:17:45;;;;;;;;;;;;;;;35.89;27.03;99582.13;1086730;47;19945;-82
2023/07/11 10:18:46;;;;;;;;;;;;;;;36.13;27.02;99588.34;1089889;39;20814;-83
2023/07/11 10:19:50;;;;;;;;;;;;;;;36.16;26.20;99579.34;1086869;47;19939;-83
2023/07/11 10:20:53;;;;;;;;;;;;;;;36.00;26.73;99584.56;1086810;54;20869;-82
2023/07/11 10:22:00;;;;;;;;;;;;;;;36.08;26.39;99572.66;1086852;47;20878;-83
2023/07/11 10:23:02;;;;;;;;;;;;;;;36.16;26.56;99574.59;1086928;54;19951;-81
2023/07/11 10:24:06;;;;;;;;;;;;;;;36.28;26.25;99575.88;1086854;47;19965;-82
2023/07/11 10:25:15;;;;;;;;;;;;;;;36.35;26.07;99567.88;1086856;47;19939;-82
2023/07/11 10:26:21;;;;;;;;;;;;;;;36.22;26.44;99576.06;1087116;39;20767;-83
2023/07/11 10:27:26;;;;;;;;;;;;;;;35.63;26.96;99567.34;1088181;39;20798;-83
2023/07/11 10:28:32;;;;;;;;;;;;;;;35.72;26.73;99580.13;1086742;47;19938;-83
2023/07/11 10:29:38;;;;;;;;;;;;;;;35.72;26.72;99574.56;1086921;54;19951;-82
2023/07/11 10:30:41;;;;;;;;;;;;;;;35.38;26.58;99580.84;1086708;47;20019;-83
2023/07/11 10:31:44;;;;;;;;;;;;;;;35.55;26.54;99571.78;1086812;54;19942;-84
2023/07/11 10:32:56;;;;;;;;;;;;;;;35.83;26.33;99566.72;1086738;54;19942;-81
2023/07/11 10:33:59;;;;;;;;;;;;;;;35.71;26.05;99559.03;1086773;47;19945;-83
2023/07/11 10:35:05;;;;;;;;;;;;;;;36.10;25.78;99562.00;1086845;47;19938;-86
2023/07/11 10:36:14;;;;;;;;;;;;;;;35.99;26.02;99567.09;1086663;54;21381;-83
2023/07/11 10:37:25;;;;;;;;;;;;;;;36.14;25.84;99564.94;1086851;54;19943;-84
2023/07/11 10:38:28;;;;;;;;;;;;;;;36.27;25.23;99565.94;1086813;47;19939;-83
2023/07/11 10:39:36;;;;;;;;;;;;;;;36.39;24.95;99566.03;1086800;47;19938;-84
2023/07/11 10:40:40;;;;;;;;;;;;;;;36.61;24.78;99567.00;1086892;46;19945;-84
2023/07/11 10:41:47;;;;;;;;;;;;;;;36.50;24.86;99555.44;1086933;46;19939;-83
2023/07/11 10:42:54;;;;;;;;;;;;;;;36.76;24.82;99551.75;1086756;47;19938;-83
2023/07/11 10:43:58;;;;;;;;;;;;;;;36.70;24.87;99548.31;1086757;54;20313;-82
2023/07/11 10:45:07;;;;;;;;;;;;;;;36.83;24.89;99549.25;1086862;47;19938;-83
2023/07/11 10:46:13;;;;;;;;;;;;;;;36.89;24.66;99549.88;1088473;39;20309;-82
2023/07/11 10:47:21;;;;;;;;;;;;;;;36.99;24.88;99543.97;1086738;51;19939;-82
2023/07/11 10:48:34;;;;;;;;;;;;;;;36.89;25.12;99544.31;1086823;54;20884;-80
2023/07/11 10:49:37;;;;;;;;;;;;;;;36.96;24.76;99547.41;1086966;54;20071;-81
2023/07/11 10:50:44;;;;;;;;;;;;;;;37.09;24.85;99539.97;1087092;54;19950;-82
2023/07/11 10:51:49;;;;;;;;;;;;;;;37.09;24.98;99535.25;1086869;47;19950;-83
2023/07/11 10:52:54;;;;;;;;;;;;;;;36.96;24.93;99544.63;1086892;47;19946;-82
2023/07/11 10:53:59;;;;;;;;;;;;;;;37.18;24.58;99539.94;1087134;54;19943;-82
2023/07/11 10:55:05;;;;;;;;;;;;;;;37.30;24.53;99542.81;1087358;54;19954;-81
2023/07/11 10:56:09;;;;;;;;;;;;;;;36.81;25.08;99546.81;1086811;47;20339;-83
2023/07/11 10:57:15;;;;;;;;;;;;;;;36.74;25.24;99532.59;1086775;47;19969;-84
2023/07/11 10:58:18;;;;;;;;;;;;;;;36.81;25.22;99532.88;1086810;47;20848;-83
2023/07/11 10:59:23;;;;;;;;;;;;;;;37.01;25.11;99536.09;1089552;39;21086;-82
2023/07/11 11:00:28;;;;;;;;;;;;;;;36.97;25.20;99535.13;1086816;47;19950;-84
2023/07/11 11:01:36;;;;;;;;;;;;;;;37.00;24.92;99534.47;1086868;54;19965;-83
2023/07/11 11:02:42;;;;;;;;;;;;;;;37.21;25.11;99526.16;1086891;46;19947;-82
2023/07/11 11:03:51;;;;;;;;;;;;;;;37.13;25.02;99525.03;1086992;46;19962;-83
2023/07/11 11:05:08;;;;;;;;;;;;;;;37.43;24.59;99530.63;1086956;47;19939;-82
2023/07/11 11:06:26;;;;;;;;;;;;;;;37.30;24.56;99524.13;1088346;39;20780;-81
2023/07/11 11:07:30;;;;;;;;;;;;;;;37.41;25.25;99527.34;1086902;46;19945;-83
2023/07/11 11:08:39;;;;;;;;;;;;;;;37.58;24.54;99525.59;1086728;47;19964;-81
2023/07/11 11:09:42;;;;;;;;;;;;;;;37.27;24.38;99519.22;1086775;47;20006;-80
2023/07/11 11:10:52;;;;;;;;;;;;;;;37.22;25.16;99518.63;1087265;39;20762;-81
2023/07/11 11:11:59;;;;;;;;;;;;;;;37.12;25.15;99514.25;1086792;47;19966;-83
2023/07/11 11:13:08;;;;;;;;;;;;;;;37.22;24.76;99510.28;1086932;54;19942;-81
2023/07/11 11:14:11;;;;;;;;;;;;;;;36.99;25.38;99513.34;1086896;54;19949;-86
2023/07/11 11:15:22;;;;;;;;;;;;;;;36.94;25.37;99510.72;1086791;47;19964;-84
2023/07/11 11:16:27;;;;;;;;;;;;;;;36.91;25.22;99509.44;1086954;47;20852;-84
2023/07/11 11:17:39;;;;;;;;;;;;;;;36.79;25.64;99504.56;1086838;46;19938;-83
2023/07/11 11:18:51;;;;;;;;;;;;;;;36.69;25.73;99504.94;1086707;47;19963;-82
2023/07/11 11:20:12;;;;;;;;;;;;;;;36.59;26.15;99499.72;1086729;47;19946;-82
2023/07/11 11:21:22;;;;;;;;;;;;;;;36.63;25.83;99497.94;1086752;54;19942;-82
2023/07/11 11:22:28;;;;;;;;;;;;;;;36.64;25.97;99502.34;1086854;47;19939;-82
2023/07/11 11:23:36;;;;;;;;;;;;;;;36.72;25.97;99500.66;1086795;54;19968;-82
2023/07/11 11:24:46;;;;;;;;;;;;;;;36.64;26.17;99494.81;1086566;47;19946;-85
2023/07/11 11:25:52;;;;;;;;;;;;;;;36.63;25.96;99497.94;1087105;39;20810;-81
2023/07/11 11:27:02;;;;;;;;;;;;;;;36.65;26.23;99484.50;1086747;46;19946;-81
2023/07/11 11:28:13;;;;;;;;;;;;;;;36.43;26.30;99489.16;1086743;47;19938;-82
2023/07/11 11:29:22;;;;;;;;;;;;;;;35.92;26.95;99486.94;1086812;54;19942;-81
2023/07/11 11:30:31;;;;;;;;;;;;;;;35.72;27.25;99487.56;1086698;46;19939;-82
2023/07/11 11:31:36;;;;;;;;;;;;;;;35.45;27.45;99486.75;1086716;54;19942;-82
2023/07/11 11:32:41;;;;;;;;;;;;;;;35.45;27.56;99489.53;1086749;54;19950;-82
2023/07/11 11:33:54;;;;;;;;;;;;;;;35.63;27.41;99476.47;1086649;47;19939;-81
2023/07/11 11:35:05;;;;;;;;;;;;;;;35.50;27.38;99485.78;1086697;47;19939;-83
2023/07/11 11:36:14;;;;;;;;;;;;;;;35.33;27.93;99475.47;1086664;54;21383;-83
2023/07/11 11:37:22;;;;;;;;;;;;;;;35.29;27.57;99481.66;1086633;47;20022;-83
2023/07/11 11:38:36;;;;;;;;;;;;;;;35.48;27.54;99477.78;1086646;47;19945;-83
2023/07/11 11:39:43;;;;;;;;;;;;;;;35.65;27.34;99476.16;1086688;47;19939;-83
2023/07/11 11:40:50;;;;;;;;;;;;;;;35.78;27.54;99469.59;1086829;54;19943;-82
2023/07/11 11:41:54;;;;;;;;;;;;;;;35.73;27.19;99475.31;1086842;46;19938;-83
2023/07/11 11:43:01;;;;;;;;;;;;;;;35.60;27.50;99471.56;1086929;46;20082;-83
2023/07/11 11:44:03;;;;;;;;;;;;;;;35.75;27.17;99467.47;1087043;54;20666;-82
2023/07/11 11:45:10;;;;;;;;;;;;;;;35.88;27.29;99466.50;1087259;54;20713;-83
2023/07/11 11:46:11;;;;;;;;;;;;;;;35.88;27.26;99463.72;1087032;39;20305;-82
2023/07/11 11:47:16;;;;;;;;;;;;;;;35.99;27.28;99466.19;1086765;54;20839;-80
2023/07/11 11:48:19;;;;;;;;;;;;;;;36.01;27.32;99461.91;1086787;54;19942;-82
2023/07/11 11:49:26;;;;;;;;;;;;;;;35.82;27.19;99469.78;1087788;39;20689;-83
2023/07/11 11:50:28;;;;;;;;;;;;;;;35.87;27.45;99462.06;1086792;54;19956;-83
2023/07/11 11:51:32;;;;;;;;;;;;;;;35.88;27.52;99463.72;1086595;47;19968;-83
2023/07/11 11:52:33;;;;;;;;;;;;;;;35.60;27.48;99461.28;1087226;39;20630;-82
2023/07/11 11:53:43;;;;;;;;;;;;;;;35.70;27.50;99459.31;1086705;47;20010;-81
2023/07/11 11:54:45;;;;;;;;;;;;;;;35.67;27.68;99457.19;1086789;47;19939;-82
2023/07/11 11:55:51;;;;;;;;;;;;;;;35.78;27.82;99464.06;1086757;47;19943;-82
2023/07/11 11:56:53;;;;;;;;;;;;;;;35.75;27.83;99448.03;1086703;54;19943;-82
2023/07/11 11:57:57;;;;;;;;;;;;;;;35.28;28.23;99438.38;1086753;54;19994;-83
2023/07/11 11:58:59;;;;;;;;;;;;;;;35.21;28.38;99446.38;1086725;47;20029;-83
2023/07/11 12:00:03;;;;;;;;;;;;;;;34.92;28.96;99445.00;1086745;47;19939;-84
2023/07/11 12:01:27;;;;;;;;;;;;;;;34.82;29.31;99451.63;1086686;54;19947;-82
2023/07/11 12:02:34;;;;;;;;;;;;;;;35.01;28.97;99446.97;1089299;31;20832;-81
2023/07/11 12:03:43;;;;;;;;;;;;;;;35.05;28.97;99453.53;1086749;54;20034;-84
2023/07/11 12:05:03;;;;;;;;;;;;;;;35.14;29.09;99441.28;1086771;54;19954;-82
2023/07/11 12:06:26;;;;;;;;;;;;;;;35.03;29.23;99441.94;1086889;47;19959;-85
2023/07/11 12:07:36;;;;;;;;;;;;;;;34.95;29.17;99438.00;1087021;54;19943;-82
2023/07/11 12:08:37;;;;;;;;;;;;;;;35.10;28.81;99437.50;1087161;47;19939;-82
2023/07/11 12:09:42;;;;;;;;;;;;;;;35.11;28.78;99430.03;1090241;39;20245;-83
2023/07/11 12:11:00;;;;;;;;;;;;;;;34.96;29.00;99432.09;1087052;47;19939;-82
2023/07/11 12:12:07;;;;;;;;;;;;;;;34.92;28.85;99435.84;1086996;47;19938;-83
2023/07/11 12:13:18;;;;;;;;;;;;;;;34.82;28.97;99437.75;1087118;54;20010;-84
2023/07/11 12:14:26;;;;;;;;;;;;;;;35.04;28.73;99436.03;1087131;47;19950;-83
2023/07/11 12:15:28;;;;;;;;;;;;;;;35.17;28.61;99422.34;1086868;47;20337;-83
2023/07/11 12:16:32;;;;;;;;;;;;;;;35.21;28.44;99429.72;1087030;54;20026;-83
2023/07/11 12:17:43;;;;;;;;;;;;;;;34.86;28.89;99423.25;1086945;47;19939;-82
2023/07/11 12:18:49;;;;;;;;;;;;;;;35.08;28.67;99412.06;1086806;54;19942;-82
2023/07/11 12:19:57;;;;;;;;;;;;;;;35.17;28.27;99414.81;1086894;54;19967;-81
2023/07/11 12:21:19;;;;;;;;;;;;;;;35.28;28.44;99413.38;1086795;47;19954;-84
2023/07/11 12:22:26;;;;;;;;;;;;;;;35.43;27.93;99414.88;1086800;54;19960;-84
2023/07/11 12:23:31;;;;;;;;;;;;;;;35.49;27.81;99412.75;1086686;47;19954;-82
2023/07/11 12:24:47;;;;;;;;;;;;;;;35.50;27.87;99416.31;1086670;54;19949;-83
2023/07/11 12:26:08;;;;;;;;;;;;;;;35.42;27.79;99404.09;1086814;54;19943;-84
2023/07/11 12:27:12;;;;;;;;;;;;;;;35.56;27.68;99406.69;1086786;54;19950;-83
2023/07/11 12:28:22;;;;;;;;;;;;;;;35.33;27.96;99406.03;1087029;47;20153;-83
2023/07/11 12:29:37;;;;;;;;;;;;;;;35.38;27.81;99403.06;1087001;47;19939;-82
2023/07/11 12:30:40;;;;;;;;;;;;;;;35.44;27.97;99404.56;1087083;47;20010;-83
2023/07/11 12:31:43;;;;;;;;;;;;;;;35.43;28.05;99397.38;1087916;46;19969;-84
2023/07/11 12:32:48;;;;;;;;;;;;;;;35.60;27.85;99405.72;1087285;46;19974;-82
2023/07/11 12:33:57;;;;;;;;;;;;;;;35.57;27.94;99397.19;1086726;54;19944;-82
2023/07/11 12:35:08;;;;;;;;;;;;;;;35.74;27.58;99391.63;1086658;47;19939;-83
2023/07/11 12:36:26;;;;;;;;;;;;;;;35.74;27.50;99390.78;1086906;47;21036;-82
2023/07/11 12:37:32;;;;;;;;;;;;;;;35.91;27.63;99390.78;1087128;54;19966;-83
2023/07/11 12:38:39;;;;;;;;;;;;;;;35.77;27.41;99379.03;1086990;46;19939;-81
2023/07/11 12:39:48;;;;;;;;;;;;;;;35.50;28.06;99383.00;1086997;47;20369;-82
2023/07/11 12:40:55;;;;;;;;;;;;;;;35.66;27.76;99386.06;1087929;39;20677;-83
2023/07/11 12:42:04;;;;;;;;;;;;;;;35.66;27.77;99389.66;1087088;54;20010;-83
2023/07/11 12:43:15;;;;;;;;;;;;;;;35.62;27.87;99385.94;1087052;47;19939;-82
2023/07/11 12:44:16;;;;;;;;;;;;;;;35.53;28.11;99388.69;1088610;39;20697;-83
2023/07/11 12:45:21;;;;;;;;;;;;;;;35.61;27.91;99381.50;1087145;54;19942;-82
2023/07/11 12:46:24;;;;;;;;;;;;;;;35.62;27.88;99372.03;1086956;54;19959;-83
2023/07/11 12:47:29;;;;;;;;;;;;;;;35.43;28.15;99377.91;1088482;39;20674;-85
2023/07/11 12:48:31;;;;;;;;;;;;;;;35.55;28.09;99383.63;1087045;54;19942;-82
2023/07/11 12:49:36;;;;;;;;;;;;;;;35.47;28.03;99370.56;1086968;47;21256;-82
2023/07/11 12:50:39;;;;;;;;;;;;;;;35.63;28.04;99367.28;1086980;47;19950;-83
2023/07/11 12:51:43;;;;;;;;;;;;;;;35.68;28.17;99370.69;1087041;54;19955;-83
2023/07/11 12:52:55;;;;;;;;;;;;;;;35.64;28.12;99368.91;1089595;39;20666;-85
2023/07/11 12:54:00;;;;;;;;;;;;;;;35.71;27.88;99363.69;1087222;46;19939;-83
2023/07/11 12:55:02;;;;;;;;;;;;;;;35.58;28.28;99357.16;1087169;54;19943;-85
2023/07/11 12:56:14;;;;;;;;;;;;;;;35.58;28.30;99352.44;1086992;47;19946;-84
2023/07/11 12:57:16;;;;;;;;;;;;;;;35.53;28.61;99360.13;1087137;46;19994;-83
2023/07/11 12:58:20;;;;;;;;;;;;;;;35.41;28.73;99361.59;1087042;47;21358;-83
2023/07/11 12:59:22;;;;;;;;;;;;;;;35.53;28.58;99355.34;1087099;54;19973;-85
2023/07/11 13:00:30;;;;;;;;;;;;;;;35.68;28.48;99356.00;1087011;54;19978;-88
2023/07/11 13:01:31;;;;;;;;;;;;;;;35.82;28.53;99353.03;1086925;54;20014;-84
2023/07/11 13:02:34;;;;;;;;;;;;;;;35.88;28.35;99346.13;1086975;46;19939;-83
2023/07/11 13:03:36;;;;;;;;;;;;;;;35.90;28.12;99349.41;1089660;39;20880;-83
2023/07/11 13:04:41;;;;;;;;;;;;;;;35.84;28.44;99351.53;1087486;54;20021;-83
2023/07/11 13:05:46;;;;;;;;;;;;;;;35.75;28.48;99343.25;1089984;39;20673;-83
2023/07/11 13:06:54;;;;;;;;;;;;;;;35.67;28.77;99346.81;1087367;54;19943;-83
2023/07/11 13:08:05;;;;;;;;;;;;;;;35.67;28.62;99341.28;1087060;47;20023;-83
2023/07/11 13:09:11;;;;;;;;;;;;;;;35.68;28.50;99348.47;1087242;54;19949;-84
2023/07/11 13:10:20;;;;;;;;;;;;;;;35.62;28.49;99344.25;1087005;47;19939;-83
2023/07/11 13:11:24;;;;;;;;;;;;;;;35.73;28.79;99341.91;1086952;46;19939;-83
2023/07/11 13:12:26;;;;;;;;;;;;;;;35.83;28.52;99336.00;1086937;47;19939;-84
2023/07/11 13:13:31;;;;;;;;;;;;;;;35.90;28.58;99338.28;1086914;47;19945;-83
2023/07/11 13:14:32;;;;;;;;;;;;;;;35.60;29.06;99341.81;1086877;47;19939;-82
2023/07/11 13:15:35;;;;;;;;;;;;;;;35.68;28.79;99342.09;1087137;54;19949;-82
2023/07/11 13:16:38;;;;;;;;;;;;;;;35.71;29.26;99342.25;1087154;54;19942;-83
2023/07/11 13:17:41;;;;;;;;;;;;;;;35.66;29.15;99331.31;1086951;47;20017;-84
2023/07/11 13:18:43;;;;;;;;;;;;;;;35.80;29.00;99333.91;1086980;54;19946;-85
2023/07/11 13:19:48;;;;;;;;;;;;;;;35.86;28.83;99327.00;1086599;54;19994;-84
2023/07/11 13:20:49;;;;;;;;;;;;;;;35.74;29.31;99318.53;1086414;54;19939;-85
2023/07/11 13:21:53;;;;;;;;;;;;;;;35.82;28.91;99319.66;1086684;47;19939;-83
2023/07/11 13:22:57;;;;;;;;;;;;;;;35.85;28.69;99325.38;1087021;54;19946;-82
2023/07/11 13:24:01;;;;;;;;;;;;;;;35.94;28.64;99327.34;1087224;47;19939;-82
2023/07/11 13:25:02;;;;;;;;;;;;;;;36.05;28.66;99321.06;1087061;47;19938;-83
2023/07/11 13:26:09;;;;;;;;;;;;;;;35.85;28.63;99322.59;1087191;54;19974;-84
2023/07/11 13:27:15;;;;;;;;;;;;;;;35.95;28.51;99323.41;1086988;47;19938;-84
2023/07/11 13:28:19;;;;;;;;;;;;;;;36.01;28.61;99317.34;1087424;39;20945;-83
2023/07/11 13:29:21;;;;;;;;;;;;;;;35.98;28.77;99323.56;1087063;47;19939;-84
2023/07/11 13:30:26;;;;;;;;;;;;;;;35.90;29.07;99316.03;1087036;54;19943;-81
2023/07/11 13:31:29;;;;;;;;;;;;;;;35.98;28.78;99311.63;1087146;47;20001;-81
2023/07/11 13:32:32;;;;;;;;;;;;;;;36.07;28.79;99306.84;1087082;47;20006;-83
2023/07/11 13:33:34;;;;;;;;;;;;;;;36.14;28.70;99309.91;1087192;47;19942;-81
2023/07/11 13:34:37;;;;;;;;;;;;;;;36.07;28.57;99307.66;1087177;46;19969;-84
2023/07/11 13:35:48;;;;;;;;;;;;;;;36.07;28.78;99307.66;1087172;47;19942;-79
2023/07/11 13:36:52;;;;;;;;;;;;;;;36.01;28.67;99309.00;1087073;47;19993;-82
2023/07/11 13:37:53;;;;;;;;;;;;;;;36.15;28.49;99311.53;1087184;54;19942;-79
2023/07/11 13:39:02;;;;;;;;;;;;;;;36.01;28.85;99305.38;1087154;54;19943;-80
2023/07/11 13:40:03;;;;;;;;;;;;;;;35.84;29.05;99297.91;1087251;54;19942;-80
2023/07/11 13:41:06;;;;;;;;;;;;;;;35.91;29.06;99293.47;1087143;46;19965;-82
2023/07/11 13:42:09;;;;;;;;;;;;;;;35.82;28.91;99297.44;1087179;47;20879;-80
2023/07/11 13:43:18;;;;;;;;;;;;;;;35.87;28.82;99305.56;1087223;54;19943;-80
2023/07/11 13:44:25;;;;;;;;;;;;;;;35.86;28.88;99296.44;1087208;54;19942;-84
2023/07/11 13:45:29;;;;;;;;;;;;;;;35.97;28.90;99293.31;1087254;46;20765;-83
2023/07/11 13:46:31;;;;;;;;;;;;;;;36.01;28.77;99292.31;1090227;39;21035;-82
2023/07/11 13:47:40;;;;;;;;;;;;;;;36.02;29.10;99291.16;1086481;46;19978;-82
2023/07/11 13:48:43;;;;;;;;;;;;;;;36.18;28.60;99296.94;1087086;54;19958;-80
2023/07/11 13:49:48;;;;;;;;;;;;;;;36.23;28.63;99296.78;1087259;46;20854;-80
2023/07/11 13:51:03;;;;;;;;;;;;;;;36.12;28.62;99295.53;1087120;46;19950;-81
2023/07/11 13:52:08;;;;;;;;;;;;;;;36.27;28.57;99296.13;1087239;47;20004;-84
2023/07/11 13:53:13;;;;;;;;;;;;;;;36.28;28.57;99290.19;1087646;39;20965;-81
2023/07/11 13:54:23;;;;;;;;;;;;;;;36.37;28.49;99290.16;1087204;46;19938;-79
2023/07/11 13:55:26;;;;;;;;;;;;;;;36.32;28.73;99293.13;1087221;46;19939;-79
2023/07/11 13:56:29;;;;;;;;;;;;;;;36.20;28.86;99293.84;1087230;46;19938;-81
2023/07/11 13:57:30;;;;;;;;;;;;;;;36.16;29.29;99284.53;1087185;54;20014;-79
2023/07/11 13:58:34;;;;;;;;;;;;;;;36.09;29.18;99285.06;1088566;39;21069;-79
2023/07/11 13:59:34;;;;;;;;;;;;;;;36.03;29.60;99287.25;1087280;47;19946;-79
2023/07/11 14:00:36;;;;;;;;;;;;;;;36.02;29.01;99280.03;1087252;54;19946;-79
2023/07/11 14:01:40;;;;;;;;;;;;;;;36.01;29.20;99288.69;1087059;47;19938;-79
2023/07/11 14:02:41;;;;;;;;;;;;;;;36.01;28.97;99283.13;1087563;39;20738;-81
2023/07/11 14:03:44;;;;;;;;;;;;;;;36.01;29.28;99283.13;1087095;47;19964;-78
2023/07/11 14:04:45;;;;;;;;;;;;;;;36.19;28.91;99290.25;1087113;47;19974;-79
2023/07/11 14:05:49;;;;;;;;;;;;;;;36.21;28.72;99292.72;1087226;54;19942;-78
2023/07/11 14:06:50;;;;;;;;;;;;;;;36.31;28.75;99288.72;1087066;47;19938;-80
2023/07/11 14:07:55;;;;;;;;;;;;;;;36.37;28.61;99290.97;1087143;54;19946;-80
2023/07/11 14:08:56;;;;;;;;;;;;;;;36.34;28.60;99283.28;1086986;47;19969;-78
2023/07/11 14:10:02;;;;;;;;;;;;;;;36.46;28.58;99279.81;1087056;47;19938;-78
2023/07/11 14:11:04;;;;;;;;;;;;;;;36.44;28.26;99284.91;1087155;54;19949;-78
2023/07/11 14:12:08;;;;;;;;;;;;;;;36.56;28.17;99275.81;1087006;46;19953;-79
2023/07/11 14:13:12;;;;;;;;;;;;;;;36.50;28.56;99272.41;1087185;46;19938;-78
2023/07/11 14:14:17;;;;;;;;;;;;;;;36.56;28.61;99273.03;1087184;54;19954;-77
2023/07/11 14:15:19;;;;;;;;;;;;;;;36.45;28.17;99286.53;1086948;46;19950;-77
2023/07/11 14:16:22;;;;;;;;;;;;;;;36.37;28.34;99274.28;1087130;46;19968;-79
2023/07/11 14:17:23;;;;;;;;;;;;;;;36.60;28.02;99275.94;1087095;54;19943;-78
2023/07/11 14:18:26;;;;;;;;;;;;;;;36.55;28.20;99278.94;1087111;54;19942;-78
2023/07/11 14:19:32;;;;;;;;;;;;;;;36.74;27.91;99276.50;1087398;54;19968;-78
2023/07/11 14:20:37;;;;;;;;;;;;;;;36.87;27.89;99282.94;1087032;46;19938;-78
2023/07/11 14:21:41;;;;;;;;;;;;;;;36.87;27.70;99273.75;1087063;54;19942;-82
2023/07/11 14:22:45;;;;;;;;;;;;;;;37.01;27.72;99277.13;1087044;47;19964;-81
2023/07/11 14:23:46;;;;;;;;;;;;;;;37.33;27.02;99280.22;1087234;54;19942;-84
2023/07/11 14:24:49;;;;;;;;;;;;;;;37.31;27.37;99277.00;1088627;39;20941;-85
2023/07/11 14:25:53;;;;;;;;;;;;;;;37.59;26.69;99276.41;1087119;54;20018;-83
2023/07/11 14:26:56;;;;;;;;;;;;;;;37.84;26.76;99280.00;1087134;46;19939;-83